Terminal Aerodrome Forecast
Issued by NWS Omaha/Valley, NE

Home | Current Version | Previous Version | Text Only | Print | Product List | Glossary On
Versions: 1 2 3 4 5 6 7 8 9 10 11 12 13 14 15 16 17 18
000
FTUS43 KOAX 200319 AAC
TAFLNK
TAF AMD
KLNK 200319Z 2003/2024 18014KT P6SM BKN250 WS020/19040KT
     FM200600 17013KT P6SM SCT015 BKN120 WS020/20042KT
      TEMPO 2007/2010 5SM BR BKN015
     FM201000 17013KT P6SM OVC015
      TEMPO 2010/2014 4SM -SHRA OVC008
     FM201500 18012KT P6SM BKN015
     FM201800 24014KT P6SM SCT025 BKN090=

USA.gov is the U.S. government's official web portal to all federal, state and local government web resources and services.